createdAt,value
2023-05-14T00:00:19.468Z,13.02
2023-05-14T00:03:20.580Z,12.95
2023-05-14T00:06:21.910Z,13.18
2023-05-14T00:09:23.140Z,14.48
2023-05-14T00:12:23.942Z,13.25
2023-05-14T00:15:24.933Z,14.95
2023-05-14T00:18:25.832Z,13.75
2023-05-14T00:21:26.697Z,13.70
2023-05-14T00:24:27.968Z,14.65
2023-05-14T00:27:29.298Z,13.75
2023-05-14T00:30:30.293Z,14.02
2023-05-14T00:33:31.774Z,13.68
2023-05-14T00:36:33.231Z,13.93
2023-05-14T00:39:34.979Z,14.23
2023-05-14T00:42:36.028Z,14.63
2023-05-14T00:45:37.730Z,15.38
2023-05-14T00:48:39.381Z,15.63
2023-05-14T00:51:41.772Z,14.73
2023-05-14T00:54:43.043Z,13.45
2023-05-14T00:57:44.705Z,14.55
2023-05-14T01:00:46.012Z,15.32
2023-05-14T01:03:47.283Z,15.23
2023-05-14T01:07:16.672Z,15.15
2023-05-14T01:10:36.828Z,15.25
2023-05-14T01:13:56.559Z,15.75
2023-05-14T01:17:01.646Z,16.27
2023-05-14T01:20:03.804Z,14.95
2023-05-14T01:23:04.747Z,15.27
2023-05-14T01:26:06.323Z,15.73
2023-05-14T01:29:21.901Z,15.65
2023-05-14T01:32:25.998Z,16.20
2023-05-14T01:35:30.567Z,16.38
2023-05-14T01:38:34.353Z,16.35
2023-05-14T01:41:37.395Z,15.55
2023-05-14T01:44:38.430Z,15.45
2023-05-14T01:47:39.365Z,16.58
2023-05-14T01:50:40.743Z,16.13
2023-05-14T01:53:41.903Z,15.95
2023-05-14T01:56:43.210Z,17.48
2023-05-14T01:59:44.036Z,16.42
2023-05-14T02:02:45.212Z,16.35
2023-05-14T02:05:46.498Z,15.95
2023-05-14T02:08:47.858Z,16.23
2023-05-14T02:11:49.168Z,16.55
2023-05-14T02:14:50.758Z,16.27
2023-05-14T02:17:52.032Z,16.65
2023-05-14T02:20:52.783Z,15.65
2023-05-14T02:23:53.642Z,17.30
2023-05-14T02:26:54.924Z,15.32
2023-05-14T02:29:56.845Z,16.10
2023-05-14T02:32:58.554Z,16.52
2023-05-14T02:35:59.834Z,17.48
2023-05-14T02:39:01.432Z,17.25
2023-05-14T02:42:02.667Z,17.75
2023-05-14T02:45:04.197Z,17.35
2023-05-14T02:48:05.573Z,17.83
2023-05-14T02:51:06.706Z,17.67
2023-05-14T02:54:07.715Z,18.08
2023-05-14T02:57:08.631Z,17.75
2023-05-14T03:00:11.160Z,16.45
2023-05-14T03:03:12.317Z,18.58
2023-05-14T03:06:13.719Z,17.52
2023-05-14T03:09:14.715Z,19.17
2023-05-14T03:12:16.030Z,18.52
2023-05-14T03:15:17.087Z,17.83
2023-05-14T03:18:18.021Z,16.98
2023-05-14T03:21:20.369Z,17.02
2023-05-14T03:24:22.896Z,15.75
2023-05-14T03:27:24.368Z,17.20
2023-05-14T03:30:26.594Z,17.33
2023-05-14T03:33:28.101Z,18.75
2023-05-14T03:36:29.109Z,17.95
2023-05-14T03:39:30.098Z,18.23
2023-05-14T03:42:31.393Z,17.90
2023-05-14T03:45:33.684Z,17.17
2023-05-14T03:48:34.497Z,18.52
2023-05-14T03:51:38.441Z,18.13
2023-05-14T03:54:41.482Z,19.40
2023-05-14T03:57:42.552Z,19.25
2023-05-14T04:00:43.903Z,18.52
2023-05-14T04:03:45.223Z,18.90
2023-05-14T04:06:47.449Z,19.40
2023-05-14T04:09:48.810Z,19.88
2023-05-14T04:12:50.041Z,19.02
2023-05-14T04:15:51.526Z,19.77
2023-05-14T04:18:52.695Z,20.23
2023-05-14T04:21:54.056Z,21.05
2023-05-14T04:24:55.342Z,20.92
2023-05-14T04:27:56.577Z,20.27
2023-05-14T04:30:57.358Z,20.95
2023-05-14T04:33:58.035Z,20.50
2023-05-14T04:36:58.903Z,21.33
2023-05-14T04:39:59.856Z,19.88
2023-05-14T04:43:01.186Z,19.92
2023-05-14T04:46:03.425Z,18.88
2023-05-14T04:49:04.581Z,18.63
2023-05-14T04:52:07.018Z,19.52
2023-05-14T04:55:08.822Z,19.23
2023-05-14T04:58:09.983Z,20.42
2023-05-14T05:01:10.880Z,19.70
2023-05-14T05:04:12.090Z,19.70
2023-05-14T05:07:14.322Z,19.63
2023-05-14T05:10:15.640Z,18.65
2023-05-14T05:13:17.332Z,19.05
2023-05-14T05:16:18.813Z,18.00
2023-05-14T05:19:26.533Z,19.02
2023-05-14T05:22:33.625Z,17.35
2023-05-14T05:25:34.978Z,18.67
2023-05-14T05:28:35.911Z,16.98
2023-05-14T05:31:37.186Z,18.77
2023-05-14T05:34:38.264Z,18.13
2023-05-14T05:37:39.164Z,20.42
2023-05-14T05:40:40.171Z,19.00
2023-05-14T05:43:41.447Z,17.90
2023-05-14T05:46:42.359Z,18.45
2023-05-14T05:49:43.551Z,18.75
2023-05-14T05:52:44.995Z,18.52
2023-05-14T05:55:45.908Z,18.45
2023-05-14T05:58:46.665Z,18.85
2023-05-14T06:01:48.393Z,17.27
2023-05-14T06:04:49.338Z,18.50
2023-05-14T06:07:50.767Z,16.67
2023-05-14T06:10:51.720Z,16.42
2023-05-14T06:13:53.360Z,17.27
2023-05-14T06:16:54.821Z,17.20
2023-05-14T06:19:55.751Z,16.98
2023-05-14T06:22:57.215Z,16.02
2023-05-14T06:25:58.474Z,16.65
2023-05-14T06:28:59.586Z,18.02
2023-05-14T06:32:04.914Z,17.70
2023-05-14T06:35:06.798Z,18.67
2023-05-14T06:38:07.622Z,17.50
2023-05-14T06:41:08.956Z,17.55
2023-05-14T06:44:10.345Z,17.02
2023-05-14T06:47:12.105Z,17.83
2023-05-14T06:50:13.233Z,16.65
2023-05-14T06:53:14.473Z,16.35
2023-05-14T06:56:15.550Z,16.42
2023-05-14T06:59:16.394Z,18.60
2023-05-14T07:02:17.257Z,18.63
2023-05-14T07:05:21.196Z,17.48
2023-05-14T07:08:22.384Z,16.73
2023-05-14T07:11:23.347Z,17.35
2023-05-14T07:14:24.561Z,17.67
2023-05-14T07:17:25.640Z,18.48
2023-05-14T07:20:27.245Z,18.23
2023-05-14T07:23:28.428Z,16.50
2023-05-14T07:26:29.224Z,16.83
2023-05-14T07:29:30.580Z,15.60
2023-05-14T07:32:31.543Z,16.67
2023-05-14T07:35:32.602Z,15.73
2023-05-14T07:38:33.489Z,13.60
2023-05-14T07:41:34.577Z,15.65
2023-05-14T07:44:35.532Z,13.15
2023-05-14T07:47:36.653Z,13.88
2023-05-14T07:50:38.410Z,14.45
2023-05-14T07:53:39.668Z,15.00
2023-05-14T07:56:40.625Z,13.23
2023-05-14T07:59:41.324Z,14.80
2023-05-14T08:02:43.011Z,12.95
2023-05-14T08:05:44.043Z,12.70
2023-05-14T08:08:44.742Z,13.05
2023-05-14T08:11:45.715Z,13.13
2023-05-14T08:14:46.839Z,12.07
2023-05-14T08:17:47.888Z,13.73
2023-05-14T08:20:49.181Z,12.50
2023-05-14T08:23:49.869Z,11.70
2023-05-14T08:26:51.053Z,12.73
2023-05-14T08:29:52.289Z,12.35
2023-05-14T08:32:53.593Z,12.55
2023-05-14T08:35:54.956Z,12.45
2023-05-14T08:38:56.124Z,11.77
2023-05-14T08:42:00.749Z,12.02
2023-05-14T08:45:05.773Z,12.38
2023-05-14T08:48:13.372Z,10.15
2023-05-14T08:51:14.878Z,10.02
2023-05-14T08:54:18.115Z,9.80
2023-05-14T08:57:21.622Z,9.43
2023-05-14T09:00:23.582Z,9.27
2023-05-14T09:03:25.337Z,10.30
2023-05-14T09:06:26.581Z,9.77
2023-05-14T09:09:28.779Z,11.43
2023-05-14T09:12:30.150Z,11.73
2023-05-14T09:15:33.125Z,11.30
2023-05-14T09:18:36.925Z,12.02
2023-05-14T09:21:38.296Z,12.10
2023-05-14T09:24:40.353Z,11.00
2023-05-14T09:27:41.158Z,11.25
2023-05-14T09:30:42.098Z,10.95
2023-05-14T09:33:52.106Z,11.40
2023-05-14T09:37:08.046Z,11.32
2023-05-14T09:40:10.727Z,10.02
2023-05-14T09:43:12.421Z,10.50
2023-05-14T09:46:13.601Z,10.23
2023-05-14T09:49:15.477Z,11.63
2023-05-14T09:52:20.113Z,10.68
2023-05-14T09:55:21.976Z,9.68
2023-05-14T09:58:23.302Z,9.80
2023-05-14T10:01:26.686Z,10.15
2023-05-14T10:04:28.129Z,9.88
2023-05-14T10:07:38.961Z,10.40
2023-05-14T10:10:40.378Z,9.45
2023-05-14T10:14:00.859Z,9.73
2023-05-14T10:17:05.567Z,9.45
2023-05-14T10:20:10.347Z,10.07
2023-05-14T10:23:11.636Z,10.15
2023-05-14T10:26:13.412Z,9.70
2023-05-14T10:29:14.695Z,9.68
2023-05-14T10:32:16.724Z,9.07
2023-05-14T10:35:22.412Z,9.07
2023-05-14T10:38:29.523Z,9.70
2023-05-14T10:41:30.366Z,8.77
2023-05-14T10:44:35.286Z,8.63
2023-05-14T10:47:42.772Z,9.15
2023-05-14T10:50:44.049Z,9.40
2023-05-14T10:53:45.541Z,8.75
2023-05-14T10:56:46.960Z,8.90
2023-05-14T10:59:53.489Z,8.93
2023-05-14T11:02:57.894Z,8.98
2023-05-14T11:06:03.941Z,9.77
2023-05-14T11:09:06.515Z,9.27
2023-05-14T11:12:09.237Z,7.97
2023-05-14T11:15:12.954Z,8.05
2023-05-14T11:18:26.414Z,8.57
2023-05-14T11:21:27.533Z,8.60
2023-05-14T11:24:29.041Z,7.90
2023-05-14T11:27:31.343Z,9.82
2023-05-14T11:30:32.288Z,9.63
2023-05-14T11:33:33.639Z,9.05
2023-05-14T11:36:37.353Z,7.57
2023-05-14T11:39:39.737Z,8.68
2023-05-14T11:42:42.015Z,8.65
2023-05-14T11:45:43.019Z,8.65
2023-05-14T11:48:44.589Z,7.70
2023-05-14T11:51:45.940Z,7.82
2023-05-14T11:54:47.327Z,8.05
2023-05-14T11:57:49.088Z,7.38
2023-05-14T12:00:52.208Z,7.35
2023-05-14T12:03:53.391Z,7.35
2023-05-14T12:06:55.122Z,8.30
2023-05-14T12:10:03.631Z,9.38
2023-05-14T12:13:07.571Z,8.27
2023-05-14T12:16:09.270Z,7.65
2023-05-14T12:19:14.420Z,7.07
2023-05-14T12:22:18.873Z,8.30
2023-05-14T12:25:19.999Z,8.40
2023-05-14T12:28:23.531Z,7.90
2023-05-14T12:31:37.482Z,8.35
2023-05-14T12:34:39.238Z,8.02
2023-05-14T12:37:40.345Z,7.28
2023-05-14T12:40:41.185Z,7.80
2023-05-14T12:43:48.228Z,7.10
2023-05-14T12:46:49.551Z,6.45
2023-05-14T12:49:51.093Z,7.05
2023-05-14T12:52:52.032Z,5.82
2023-05-14T12:55:52.976Z,6.35
2023-05-14T12:58:55.930Z,6.15
2023-05-14T13:01:56.728Z,6.20
2023-05-14T13:04:57.684Z,6.20
2023-05-14T13:08:02.431Z,5.85
2023-05-14T13:11:03.832Z,6.07
2023-05-14T13:14:05.084Z,5.53
2023-05-14T13:17:07.248Z,5.18
2023-05-14T13:20:09.420Z,5.10
2023-05-14T13:23:10.863Z,5.13
2023-05-14T13:26:12.119Z,4.50
2023-05-14T13:29:13.160Z,5.05
2023-05-14T13:32:13.966Z,5.95
2023-05-14T13:35:15.730Z,5.35
2023-05-14T13:38:16.893Z,6.35
2023-05-14T13:41:18.219Z,5.80
2023-05-14T13:44:19.065Z,5.93
2023-05-14T13:47:19.899Z,5.93
2023-05-14T13:50:22.136Z,6.18
2023-05-14T13:53:25.146Z,5.80
2023-05-14T13:56:26.467Z,6.30
2023-05-14T13:59:28.079Z,6.70
2023-05-14T14:02:28.889Z,6.50
2023-05-14T14:05:29.986Z,6.63
2023-05-14T14:08:31.413Z,6.20
2023-05-14T14:11:32.543Z,6.68
2023-05-14T14:14:33.939Z,6.30
2023-05-14T14:17:35.112Z,5.78
2023-05-14T14:20:36.548Z,5.80
2023-05-14T14:23:37.679Z,5.50
2023-05-14T14:26:38.649Z,5.22
2023-05-14T14:29:39.545Z,6.00
2023-05-14T14:32:40.902Z,5.35
2023-05-14T14:35:42.046Z,5.13
2023-05-14T14:38:43.056Z,4.90
2023-05-14T14:41:44.682Z,5.32
2023-05-14T14:44:45.628Z,6.35
2023-05-14T14:47:47.354Z,5.50
2023-05-14T14:50:48.409Z,5.50
2023-05-14T14:53:49.403Z,5.38
2023-05-14T14:56:52.620Z,5.13
2023-05-14T14:59:53.586Z,5.07
2023-05-14T15:02:54.708Z,5.63
2023-05-14T15:05:55.881Z,5.22
2023-05-14T15:08:57.103Z,4.95
2023-05-14T15:11:58.525Z,4.90
2023-05-14T15:14:59.399Z,5.13
2023-05-14T15:18:00.833Z,5.90
2023-05-14T15:21:01.838Z,5.20
2023-05-14T15:24:05.303Z,5.13
2023-05-14T15:27:06.523Z,5.57
2023-05-14T15:30:08.370Z,4.65
2023-05-14T15:33:09.560Z,5.30
2023-05-14T15:36:10.850Z,5.22
2023-05-14T15:39:11.724Z,4.75
2023-05-14T15:42:13.074Z,5.22
2023-05-14T15:45:14.890Z,5.75
2023-05-14T15:48:16.072Z,6.22
2023-05-14T15:51:17.044Z,5.85
2023-05-14T15:54:18.508Z,6.22
2023-05-14T15:57:20.198Z,7.07
2023-05-14T16:00:21.744Z,6.63
2023-05-14T16:03:22.885Z,7.68
2023-05-14T16:06:24.276Z,6.82
2023-05-14T16:09:27.059Z,7.13
2023-05-14T16:12:28.305Z,7.90
2023-05-14T16:15:29.328Z,7.40
2023-05-14T16:18:30.863Z,7.78
2023-05-14T16:21:32.980Z,7.25
2023-05-14T16:24:33.938Z,7.75
2023-05-14T16:27:35.281Z,1.40
2023-05-14T16:30:36.434Z,2.00
2023-05-14T16:33:37.428Z,2.15
2023-05-14T16:36:38.293Z,1.80
2023-05-14T16:39:39.148Z,1.88
2023-05-14T16:42:39.946Z,2.72
2023-05-14T16:45:41.377Z,2.60
2023-05-14T16:48:44.555Z,2.60
2023-05-14T16:51:46.438Z,2.80
2023-05-14T16:54:47.349Z,2.85
2023-05-14T16:57:48.730Z,3.30
2023-05-14T17:00:49.377Z,2.58
2023-05-14T17:03:50.676Z,2.33
2023-05-14T17:06:51.873Z,2.17
2023-05-14T17:09:52.881Z,2.25
2023-05-14T17:12:54.220Z,2.10
2023-05-14T17:15:55.826Z,2.58
2023-05-14T17:18:57.168Z,2.85
2023-05-14T17:21:58.504Z,2.97
2023-05-14T17:25:00.030Z,3.20
2023-05-14T17:28:01.054Z,3.53
2023-05-14T17:31:02.388Z,3.30
2023-05-14T17:34:03.631Z,3.25
2023-05-14T17:37:05.044Z,3.35
2023-05-14T17:40:07.163Z,3.50
2023-05-14T17:43:08.791Z,2.95
2023-05-14T17:46:10.277Z,3.20
2023-05-14T17:49:12.166Z,3.72
2023-05-14T17:52:13.469Z,2.95
2023-05-14T17:55:14.408Z,2.80
2023-05-14T17:58:16.344Z,4.00
2023-05-14T18:01:17.354Z,3.13
2023-05-14T18:04:18.095Z,2.88
2023-05-14T18:07:19.438Z,3.05
2023-05-14T18:10:20.504Z,3.35
2023-05-14T18:13:21.343Z,2.80
2023-05-14T18:16:22.470Z,3.05
2023-05-14T18:19:23.856Z,3.30
2023-05-14T18:22:25.100Z,3.58
2023-05-14T18:25:26.296Z,3.95
2023-05-14T18:28:28.431Z,5.40
2023-05-14T18:31:30.083Z,5.35
2023-05-14T18:34:31.334Z,6.80
2023-05-14T18:37:33.474Z,6.38
2023-05-14T18:40:35.046Z,5.95
2023-05-14T18:43:36.028Z,5.90
2023-05-14T18:46:37.158Z,6.32
2023-05-14T18:49:42.474Z,6.43
2023-05-14T18:52:43.462Z,5.45
2023-05-14T18:55:44.288Z,6.28
2023-05-14T18:58:45.082Z,5.13
2023-05-14T19:01:46.033Z,5.50
2023-05-14T19:07:51.178Z,4.75
2023-05-14T19:10:55.859Z,5.13
2023-05-14T19:13:56.972Z,5.45
2023-05-14T19:16:57.963Z,4.95
2023-05-14T19:19:59.633Z,6.03
2023-05-14T19:23:00.667Z,6.32
2023-05-14T19:26:01.992Z,5.68
2023-05-14T19:29:02.877Z,5.70
2023-05-14T19:32:04.880Z,5.10
2023-05-14T19:35:06.861Z,5.30
2023-05-14T19:38:09.805Z,5.82
2023-05-14T19:41:10.913Z,5.15
2023-05-14T19:44:12.279Z,5.15
2023-05-14T19:47:13.445Z,5.57
2023-05-14T19:50:14.971Z,5.40
2023-05-14T19:53:16.453Z,6.00
2023-05-14T19:56:17.765Z,6.30
2023-05-14T19:59:18.992Z,7.03
2023-05-14T20:02:22.088Z,6.50
2023-05-14T20:05:23.009Z,6.38
2023-05-14T20:08:25.092Z,6.53
2023-05-14T20:11:26.212Z,6.88
2023-05-14T20:14:27.553Z,6.68
2023-05-14T20:17:28.498Z,5.70
2023-05-14T20:20:32.933Z,6.35
2023-05-14T20:23:35.196Z,6.60
2023-05-14T20:26:36.113Z,6.68
2023-05-14T20:29:36.892Z,6.97
2023-05-14T20:32:37.921Z,7.05
2023-05-14T20:35:41.033Z,7.88
2023-05-14T20:38:42.564Z,8.40
2023-05-14T20:41:45.757Z,7.13
2023-05-14T20:44:48.532Z,8.02
2023-05-14T20:47:49.441Z,8.80
2023-05-14T20:50:50.821Z,8.35
2023-05-14T20:53:51.882Z,7.82
2023-05-14T20:56:52.741Z,6.93
2023-05-14T20:59:53.744Z,7.00
2023-05-14T21:02:54.624Z,7.35
2023-05-14T21:05:57.065Z,6.90
2023-05-14T21:08:58.245Z,7.32
2023-05-14T21:11:59.301Z,6.47
2023-05-14T21:15:00.232Z,6.30
2023-05-14T21:18:02.400Z,6.85
2023-05-14T21:21:03.800Z,7.60
2023-05-14T21:24:05.103Z,7.20
2023-05-14T21:27:06.345Z,7.80
2023-05-14T21:30:08.171Z,7.93
2023-05-14T21:33:09.236Z,8.15
2023-05-14T21:36:11.075Z,7.55
2023-05-14T21:39:12.029Z,7.55
2023-05-14T21:42:12.990Z,7.75
2023-05-14T21:45:13.921Z,8.48
2023-05-14T21:48:15.007Z,8.55
2023-05-14T21:51:16.337Z,7.50
2023-05-14T21:54:18.084Z,8.43
2023-05-14T21:57:19.528Z,8.75
2023-05-14T22:00:23.708Z,7.75
2023-05-14T22:03:24.602Z,7.90
2023-05-14T22:06:26.539Z,7.78
2023-05-14T22:09:27.581Z,7.22
2023-05-14T22:12:28.481Z,7.90
2023-05-14T22:15:29.294Z,7.65
2023-05-14T22:18:30.129Z,7.65
2023-05-14T22:21:31.104Z,7.55
2023-05-14T22:24:32.492Z,8.82
2023-05-14T22:27:33.280Z,7.50
2023-05-14T22:30:34.021Z,7.97
2023-05-14T22:33:35.182Z,8.50
2023-05-14T22:36:36.065Z,8.43
2023-05-14T22:39:37.280Z,8.43
2023-05-14T22:42:38.221Z,9.48
2023-05-14T22:45:38.992Z,8.98
2023-05-14T22:48:39.906Z,9.70
2023-05-14T22:51:40.808Z,9.40
2023-05-14T22:54:41.637Z,10.05
2023-05-14T22:57:43.460Z,9.15
2023-05-14T23:00:44.468Z,10.52
2023-05-14T23:03:45.810Z,10.80
2023-05-14T23:06:46.900Z,11.38
2023-05-14T23:09:47.878Z,11.43
2023-05-14T23:12:49.165Z,11.30
2023-05-14T23:15:49.957Z,12.55
2023-05-14T23:18:51.170Z,13.30
2023-05-14T23:21:52.288Z,12.75
2023-05-14T23:24:53.034Z,13.05
2023-05-14T23:27:54.143Z,14.10
2023-05-14T23:30:55.070Z,12.90
2023-05-14T23:33:57.363Z,14.18
2023-05-14T23:36:58.702Z,14.10
2023-05-14T23:39:59.725Z,14.38
2023-05-14T23:43:01.247Z,14.60
2023-05-14T23:46:02.730Z,14.40
2023-05-14T23:49:04.082Z,14.20
2023-05-14T23:52:05.889Z,14.95
2023-05-14T23:55:07.727Z,15.13
2023-05-14T23:58:08.976Z,15.80
